sensor_id;sensor_type;location;lat;lon;timestamp;temperature;humidity
19031;DHT22;9648;51.130;13.978;2022-11-18T00:01:05;5.30;99.90
19031;DHT22;9648;51.130;13.978;2022-11-18T00:03:34;5.30;99.90
19031;DHT22;9648;51.130;13.978;2022-11-18T00:06:02;5.30;99.90
19031;DHT22;9648;51.130;13.978;2022-11-18T00:08:29;5.30;99.90
19031;DHT22;9648;51.130;13.978;2022-11-18T00:10:56;5.30;99.90
19031;DHT22;9648;51.130;13.978;2022-11-18T00:13:22;5.30;99.90
19031;DHT22;9648;51.130;13.978;2022-11-18T00:16:09;5.30;99.90
19031;DHT22;9648;51.130;13.978;2022-11-18T00:18:37;5.30;99.90
19031;DHT22;9648;51.130;13.978;2022-11-18T00:21:06;5.30;99.90
19031;DHT22;9648;51.130;13.978;2022-11-18T00:23:33;5.30;99.90
19031;DHT22;9648;51.130;13.978;2022-11-18T00:26:03;5.30;99.90
19031;DHT22;9648;51.130;13.978;2022-11-18T00:28:31;5.30;99.90
19031;DHT22;9648;51.130;13.978;2022-11-18T00:31:02;5.30;99.90
19031;DHT22;9648;51.130;13.978;2022-11-18T00:33:29;5.30;99.90
19031;DHT22;9648;51.130;13.978;2022-11-18T00:35:58;5.30;99.90
19031;DHT22;9648;51.130;13.978;2022-11-18T00:38:25;5.30;99.90
19031;DHT22;9648;51.130;13.978;2022-11-18T00:40:58;5.30;99.90
19031;DHT22;9648;51.130;13.978;2022-11-18T00:43:25;5.30;99.90
19031;DHT22;9648;51.130;13.978;2022-11-18T00:45:51;5.30;99.90
19031;DHT22;9648;51.130;13.978;2022-11-18T00:48:18;5.30;99.90
19031;DHT22;9648;51.130;13.978;2022-11-18T00:50:47;5.30;99.90
19031;DHT22;9648;51.130;13.978;2022-11-18T00:53:15;5.30;99.90
19031;DHT22;9648;51.130;13.978;2022-11-18T00:55:42;5.30;99.90
19031;DHT22;9648;51.130;13.978;2022-11-18T00:58:08;5.30;99.90
19031;DHT22;9648;51.130;13.978;2022-11-18T01:00:39;5.30;99.90
19031;DHT22;9648;51.130;13.978;2022-11-18T01:03:05;5.30;99.90
19031;DHT22;9648;51.130;13.978;2022-11-18T01:05:32;5.20;99.90
19031;DHT22;9648;51.130;13.978;2022-11-18T01:07:59;5.20;99.90
19031;DHT22;9648;51.130;13.978;2022-11-18T01:10:27;5.20;99.90
19031;DHT22;9648;51.130;13.978;2022-11-18T01:12:54;5.20;99.90
19031;DHT22;9648;51.130;13.978;2022-11-18T01:15:38;5.20;99.90
19031;DHT22;9648;51.130;13.978;2022-11-18T01:18:05;5.30;99.90
19031;DHT22;9648;51.130;13.978;2022-11-18T01:20:32;5.20;99.90
19031;DHT22;9648;51.130;13.978;2022-11-18T01:22:59;5.20;99.90
19031;DHT22;9648;51.130;13.978;2022-11-18T01:25:27;5.20;99.90
19031;DHT22;9648;51.130;13.978;2022-11-18T01:27:54;5.10;99.90
19031;DHT22;9648;51.130;13.978;2022-11-18T01:30:22;5.00;99.90
19031;DHT22;9648;51.130;13.978;2022-11-18T01:32:49;5.00;99.90
19031;DHT22;9648;51.130;13.978;2022-11-18T01:35:15;4.90;99.90
19031;DHT22;9648;51.130;13.978;2022-11-18T01:37:42;4.90;99.90
19031;DHT22;9648;51.130;13.978;2022-11-18T01:40:10;4.90;99.90
19031;DHT22;9648;51.130;13.978;2022-11-18T01:42:38;4.90;99.90
19031;DHT22;9648;51.130;13.978;2022-11-18T01:45:14;4.80;99.90
19031;DHT22;9648;51.130;13.978;2022-11-18T01:47:47;4.80;99.90
19031;DHT22;9648;51.130;13.978;2022-11-18T01:50:15;4.70;99.90
19031;DHT22;9648;51.130;13.978;2022-11-18T01:52:45;4.60;99.90
19031;DHT22;9648;51.130;13.978;2022-11-18T01:55:14;4.60;99.90
19031;DHT22;9648;51.130;13.978;2022-11-18T01:57:47;4.50;99.90
19031;DHT22;9648;51.130;13.978;2022-11-18T02:00:16;4.50;99.90
19031;DHT22;9648;51.130;13.978;2022-11-18T02:02:43;4.40;99.90
19031;DHT22;9648;51.130;13.978;2022-11-18T02:05:10;4.30;99.90
19031;DHT22;9648;51.130;13.978;2022-11-18T02:07:40;4.30;99.90
19031;DHT22;9648;51.130;13.978;2022-11-18T02:10:09;4.20;99.90
19031;DHT22;9648;51.130;13.978;2022-11-18T02:12:36;4.20;99.90
19031;DHT22;9648;51.130;13.978;2022-11-18T02:15:06;4.20;99.90
19031;DHT22;9648;51.130;13.978;2022-11-18T02:17:39;4.10;99.90
19031;DHT22;9648;51.130;13.978;2022-11-18T02:20:27;4.10;99.90
19031;DHT22;9648;51.130;13.978;2022-11-18T02:23:22;4.00;99.90
19031;DHT22;9648;51.130;13.978;2022-11-18T02:26:19;4.00;99.90
19031;DHT22;9648;51.130;13.978;2022-11-18T02:29:10;3.90;99.90
19031;DHT22;9648;51.130;13.978;2022-11-18T02:31:45;3.80;99.90
19031;DHT22;9648;51.130;13.978;2022-11-18T02:34:20;3.80;99.90
19031;DHT22;9648;51.130;13.978;2022-11-18T02:36:54;3.80;99.90
19031;DHT22;9648;51.130;13.978;2022-11-18T02:39:28;3.70;99.90
19031;DHT22;9648;51.130;13.978;2022-11-18T02:41:59;3.70;99.90
19031;DHT22;9648;51.130;13.978;2022-11-18T02:44:29;3.70;99.90
19031;DHT22;9648;51.130;13.978;2022-11-18T02:47:00;3.70;99.90
19031;DHT22;9648;51.130;13.978;2022-11-18T02:49:32;3.70;99.90
19031;DHT22;9648;51.130;13.978;2022-11-18T02:52:01;3.60;99.90
19031;DHT22;9648;51.130;13.978;2022-11-18T02:54:29;3.60;99.90
19031;DHT22;9648;51.130;13.978;2022-11-18T02:56:57;3.60;99.90
19031;DHT22;9648;51.130;13.978;2022-11-18T02:59:26;3.60;99.90
19031;DHT22;9648;51.130;13.978;2022-11-18T03:01:55;3.60;99.90
19031;DHT22;9648;51.130;13.978;2022-11-18T03:04:22;3.60;99.90
19031;DHT22;9648;51.130;13.978;2022-11-18T03:06:59;3.50;99.90
19031;DHT22;9648;51.130;13.978;2022-11-18T03:09:30;3.50;99.90
19031;DHT22;9648;51.130;13.978;2022-11-18T03:12:07;3.60;99.90
19031;DHT22;9648;51.130;13.978;2022-11-18T03:14:42;3.50;99.90
19031;DHT22;9648;51.130;13.978;2022-11-18T03:17:20;3.40;99.90
19031;DHT22;9648;51.130;13.978;2022-11-18T03:19:59;3.40;99.90
19031;DHT22;9648;51.130;13.978;2022-11-18T03:22:33;3.40;99.90
19031;DHT22;9648;51.130;13.978;2022-11-18T03:25:06;3.50;99.90
19031;DHT22;9648;51.130;13.978;2022-11-18T03:27:36;3.40;99.90
19031;DHT22;9648;51.130;13.978;2022-11-18T03:30:07;3.40;99.90
19031;DHT22;9648;51.130;13.978;2022-11-18T03:32:40;3.40;99.90
19031;DHT22;9648;51.130;13.978;2022-11-18T03:35:10;3.40;99.90
19031;DHT22;9648;51.130;13.978;2022-11-18T03:37:39;3.30;99.90
19031;DHT22;9648;51.130;13.978;2022-11-18T03:40:11;3.30;99.90
19031;DHT22;9648;51.130;13.978;2022-11-18T03:42:42;3.30;99.90
19031;DHT22;9648;51.130;13.978;2022-11-18T03:45:14;3.20;99.90
19031;DHT22;9648;51.130;13.978;2022-11-18T03:47:46;3.10;99.90
19031;DHT22;9648;51.130;13.978;2022-11-18T03:50:19;3.10;99.90
19031;DHT22;9648;51.130;13.978;2022-11-18T03:52:48;3.10;99.90
19031;DHT22;9648;51.130;13.978;2022-11-18T03:55:17;3.10;99.90
19031;DHT22;9648;51.130;13.978;2022-11-18T03:57:50;3.00;99.90
19031;DHT22;9648;51.130;13.978;2022-11-18T04:00:20;3.00;99.90
19031;DHT22;9648;51.130;13.978;2022-11-18T04:02:49;3.00;99.90
19031;DHT22;9648;51.130;13.978;2022-11-18T04:05:17;2.90;99.90
19031;DHT22;9648;51.130;13.978;2022-11-18T04:07:52;2.90;99.90
19031;DHT22;9648;51.130;13.978;2022-11-18T04:10:23;2.80;99.90
19031;DHT22;9648;51.130;13.978;2022-11-18T04:12:58;2.80;99.90
19031;DHT22;9648;51.130;13.978;2022-11-18T04:15:28;2.70;99.90
19031;DHT22;9648;51.130;13.978;2022-11-18T04:17:57;2.70;99.90
19031;DHT22;9648;51.130;13.978;2022-11-18T04:20:24;2.70;99.90
19031;DHT22;9648;51.130;13.978;2022-11-18T04:22:52;2.60;99.90
19031;DHT22;9648;51.130;13.978;2022-11-18T04:25:19;2.60;99.90
19031;DHT22;9648;51.130;13.978;2022-11-18T04:27:48;2.60;99.90
19031;DHT22;9648;51.130;13.978;2022-11-18T04:30:15;2.60;99.90
19031;DHT22;9648;51.130;13.978;2022-11-18T04:32:42;2.60;99.90
19031;DHT22;9648;51.130;13.978;2022-11-18T04:35:10;2.60;99.90
19031;DHT22;9648;51.130;13.978;2022-11-18T04:37:37;2.60;99.90
19031;DHT22;9648;51.130;13.978;2022-11-18T04:40:04;2.60;99.90
19031;DHT22;9648;51.130;13.978;2022-11-18T04:42:31;2.60;99.90
19031;DHT22;9648;51.130;13.978;2022-11-18T04:44:58;2.60;99.90
19031;DHT22;9648;51.130;13.978;2022-11-18T04:47:25;2.50;99.90
19031;DHT22;9648;51.130;13.978;2022-11-18T04:49:52;2.50;99.90
19031;DHT22;9648;51.130;13.978;2022-11-18T04:52:20;2.50;99.90
19031;DHT22;9648;51.130;13.978;2022-11-18T04:54:47;2.50;99.90
19031;DHT22;9648;51.130;13.978;2022-11-18T04:57:13;2.50;99.90
19031;DHT22;9648;51.130;13.978;2022-11-18T04:59:40;2.50;99.90
19031;DHT22;9648;51.130;13.978;2022-11-18T05:02:07;2.50;99.90
19031;DHT22;9648;51.130;13.978;2022-11-18T05:04:34;2.40;99.90
19031;DHT22;9648;51.130;13.978;2022-11-18T05:07:02;2.50;99.90
19031;DHT22;9648;51.130;13.978;2022-11-18T05:09:31;2.40;99.90
19031;DHT22;9648;51.130;13.978;2022-11-18T05:11:57;2.40;99.90
19031;DHT22;9648;51.130;13.978;2022-11-18T05:14:42;2.30;99.90
19031;DHT22;9648;51.130;13.978;2022-11-18T05:17:09;2.30;99.90
19031;DHT22;9648;51.130;13.978;2022-11-18T05:19:37;2.40;99.90
19031;DHT22;9648;51.130;13.978;2022-11-18T05:22:04;2.40;99.90
19031;DHT22;9648;51.130;13.978;2022-11-18T05:24:32;2.40;99.90
19031;DHT22;9648;51.130;13.978;2022-11-18T05:26:59;2.30;99.90
19031;DHT22;9648;51.130;13.978;2022-11-18T05:29:26;2.30;99.90
19031;DHT22;9648;51.130;13.978;2022-11-18T05:31:53;2.20;99.90
19031;DHT22;9648;51.130;13.978;2022-11-18T05:34:20;2.20;99.90
19031;DHT22;9648;51.130;13.978;2022-11-18T05:36:47;2.20;99.90
19031;DHT22;9648;51.130;13.978;2022-11-18T05:39:13;2.10;99.90
19031;DHT22;9648;51.130;13.978;2022-11-18T05:41:41;2.10;99.90
19031;DHT22;9648;51.130;13.978;2022-11-18T05:44:26;2.10;99.90
19031;DHT22;9648;51.130;13.978;2022-11-18T05:46:52;2.10;99.90
19031;DHT22;9648;51.130;13.978;2022-11-18T05:49:20;2.10;99.90
19031;DHT22;9648;51.130;13.978;2022-11-18T05:51:46;2.10;99.90
19031;DHT22;9648;51.130;13.978;2022-11-18T05:54:14;2.10;99.90
19031;DHT22;9648;51.130;13.978;2022-11-18T05:56:43;2.10;99.90
19031;DHT22;9648;51.130;13.978;2022-11-18T05:59:10;2.10;99.90
19031;DHT22;9648;51.130;13.978;2022-11-18T06:01:40;2.10;99.90
19031;DHT22;9648;51.130;13.978;2022-11-18T06:04:12;2.10;99.90
19031;DHT22;9648;51.130;13.978;2022-11-18T06:06:41;2.10;99.90
19031;DHT22;9648;51.130;13.978;2022-11-18T06:09:09;2.10;99.90
19031;DHT22;9648;51.130;13.978;2022-11-18T06:11:40;2.10;99.90
19031;DHT22;9648;51.130;13.978;2022-11-18T06:14:13;2.10;99.90
19031;DHT22;9648;51.130;13.978;2022-11-18T06:16:44;2.10;99.90
19031;DHT22;9648;51.130;13.978;2022-11-18T06:19:13;2.10;99.90
19031;DHT22;9648;51.130;13.978;2022-11-18T06:21:40;2.00;99.90
19031;DHT22;9648;51.130;13.978;2022-11-18T06:24:08;2.00;99.90
19031;DHT22;9648;51.130;13.978;2022-11-18T06:26:35;2.00;99.90
19031;DHT22;9648;51.130;13.978;2022-11-18T06:29:02;2.00;99.90
19031;DHT22;9648;51.130;13.978;2022-11-18T06:31:30;2.00;99.90
19031;DHT22;9648;51.130;13.978;2022-11-18T06:33:57;2.00;99.90
19031;DHT22;9648;51.130;13.978;2022-11-18T06:36:24;2.00;99.90
19031;DHT22;9648;51.130;13.978;2022-11-18T06:38:51;1.90;99.90
19031;DHT22;9648;51.130;13.978;2022-11-18T06:41:18;1.90;99.90
19031;DHT22;9648;51.130;13.978;2022-11-18T06:43:44;1.90;99.90
19031;DHT22;9648;51.130;13.978;2022-11-18T06:46:11;1.90;99.90
19031;DHT22;9648;51.130;13.978;2022-11-18T06:48:58;1.90;99.90
19031;DHT22;9648;51.130;13.978;2022-11-18T06:51:25;1.90;99.90
19031;DHT22;9648;51.130;13.978;2022-11-18T06:53:52;1.80;99.90
19031;DHT22;9648;51.130;13.978;2022-11-18T06:56:20;1.70;99.90
19031;DHT22;9648;51.130;13.978;2022-11-18T06:58:51;1.70;99.90
19031;DHT22;9648;51.130;13.978;2022-11-18T07:01:20;1.80;99.90
19031;DHT22;9648;51.130;13.978;2022-11-18T07:03:47;1.80;99.90
19031;DHT22;9648;51.130;13.978;2022-11-18T07:06:17;1.80;99.90
19031;DHT22;9648;51.130;13.978;2022-11-18T07:08:45;1.80;99.90
19031;DHT22;9648;51.130;13.978;2022-11-18T07:11:13;1.70;99.90
19031;DHT22;9648;51.130;13.978;2022-11-18T07:13:40;1.70;99.90
19031;DHT22;9648;51.130;13.978;2022-11-18T07:16:08;1.70;99.90
19031;DHT22;9648;51.130;13.978;2022-11-18T07:18:37;1.60;99.90
19031;DHT22;9648;51.130;13.978;2022-11-18T07:21:07;1.60;99.90
19031;DHT22;9648;51.130;13.978;2022-11-18T07:23:35;1.50;99.90
19031;DHT22;9648;51.130;13.978;2022-11-18T07:26:02;1.60;99.90
19031;DHT22;9648;51.130;13.978;2022-11-18T07:28:30;1.50;99.90
19031;DHT22;9648;51.130;13.978;2022-11-18T07:31:00;1.50;99.90
19031;DHT22;9648;51.130;13.978;2022-11-18T07:33:28;1.50;99.90
19031;DHT22;9648;51.130;13.978;2022-11-18T07:35:55;1.50;99.90
19031;DHT22;9648;51.130;13.978;2022-11-18T07:38:21;1.40;99.90
19031;DHT22;9648;51.130;13.978;2022-11-18T07:40:49;1.40;99.90
19031;DHT22;9648;51.130;13.978;2022-11-18T07:43:16;1.40;99.90
19031;DHT22;9648;51.130;13.978;2022-11-18T07:45:43;1.30;99.90
19031;DHT22;9648;51.130;13.978;2022-11-18T07:48:10;1.30;99.90
19031;DHT22;9648;51.130;13.978;2022-11-18T07:50:37;1.30;99.90
19031;DHT22;9648;51.130;13.978;2022-11-18T07:53:03;1.30;99.90
19031;DHT22;9648;51.130;13.978;2022-11-18T07:55:30;1.30;99.90
19031;DHT22;9648;51.130;13.978;2022-11-18T07:57:58;1.30;99.90
19031;DHT22;9648;51.130;13.978;2022-11-18T08:00:25;1.30;99.90
19031;DHT22;9648;51.130;13.978;2022-11-18T08:02:52;1.30;99.90
19031;DHT22;9648;51.130;13.978;2022-11-18T08:05:19;1.20;99.90
19031;DHT22;9648;51.130;13.978;2022-11-18T08:07:45;1.20;99.90
19031;DHT22;9648;51.130;13.978;2022-11-18T08:10:12;1.10;99.90
19031;DHT22;9648;51.130;13.978;2022-11-18T08:12:39;1.10;99.90
19031;DHT22;9648;51.130;13.978;2022-11-18T08:15:08;1.10;99.90
19031;DHT22;9648;51.130;13.978;2022-11-18T08:17:35;1.10;99.90
19031;DHT22;9648;51.130;13.978;2022-11-18T08:20:02;1.10;99.90
19031;DHT22;9648;51.130;13.978;2022-11-18T08:22:29;1.10;99.90
19031;DHT22;9648;51.130;13.978;2022-11-18T08:24:55;1.10;99.90
19031;DHT22;9648;51.130;13.978;2022-11-18T08:27:22;1.00;99.90
19031;DHT22;9648;51.130;13.978;2022-11-18T08:29:49;1.00;99.90
19031;DHT22;9648;51.130;13.978;2022-11-18T08:32:17;1.00;99.90
19031;DHT22;9648;51.130;13.978;2022-11-18T08:34:44;1.00;99.90
19031;DHT22;9648;51.130;13.978;2022-11-18T08:37:11;1.00;99.90
19031;DHT22;9648;51.130;13.978;2022-11-18T08:39:38;1.00;99.90
19031;DHT22;9648;51.130;13.978;2022-11-18T08:42:04;1.00;99.90
19031;DHT22;9648;51.130;13.978;2022-11-18T08:44:31;1.00;99.90
19031;DHT22;9648;51.130;13.978;2022-11-18T08:46:59;1.00;99.90
19031;DHT22;9648;51.130;13.978;2022-11-18T08:49:27;0.90;99.90
19031;DHT22;9648;51.130;13.978;2022-11-18T08:51:54;0.90;99.90
19031;DHT22;9648;51.130;13.978;2022-11-18T08:54:21;0.90;99.90
19031;DHT22;9648;51.130;13.978;2022-11-18T08:56:47;0.80;99.90
19031;DHT22;9648;51.130;13.978;2022-11-18T08:59:15;0.80;99.90
19031;DHT22;9648;51.130;13.978;2022-11-18T09:01:42;0.70;99.90
19031;DHT22;9648;51.130;13.978;2022-11-18T09:04:10;0.70;99.90
19031;DHT22;9648;51.130;13.978;2022-11-18T09:06:38;0.60;99.90
19031;DHT22;9648;51.130;13.978;2022-11-18T09:09:05;0.60;99.90
19031;DHT22;9648;51.130;13.978;2022-11-18T09:11:33;0.50;99.90
19031;DHT22;9648;51.130;13.978;2022-11-18T09:14:00;0.40;99.90
19031;DHT22;9648;51.130;13.978;2022-11-18T09:16:30;0.40;99.90
19031;DHT22;9648;51.130;13.978;2022-11-18T09:18:57;0.40;99.90
19031;DHT22;9648;51.130;13.978;2022-11-18T09:21:25;0.30;99.90
19031;DHT22;9648;51.130;13.978;2022-11-18T09:23:53;0.20;99.90
19031;DHT22;9648;51.130;13.978;2022-11-18T09:26:21;0.30;99.90
19031;DHT22;9648;51.130;13.978;2022-11-18T09:28:51;0.20;99.90
19031;DHT22;9648;51.130;13.978;2022-11-18T09:31:18;0.20;99.90
19031;DHT22;9648;51.130;13.978;2022-11-18T09:33:45;0.10;99.90
19031;DHT22;9648;51.130;13.978;2022-11-18T09:36:13;0.00;99.90
19031;DHT22;9648;51.130;13.978;2022-11-18T09:38:40;-0.10;99.90
19031;DHT22;9648;51.130;13.978;2022-11-18T09:41:19;-0.10;99.90
19031;DHT22;9648;51.130;13.978;2022-11-18T09:43:56;0.00;99.90
19031;DHT22;9648;51.130;13.978;2022-11-18T09:46:30;0.10;99.90
19031;DHT22;9648;51.130;13.978;2022-11-18T09:49:02;0.10;99.90
19031;DHT22;9648;51.130;13.978;2022-11-18T09:51:41;0.00;99.90
19031;DHT22;9648;51.130;13.978;2022-11-18T09:54:19;0.10;99.90
19031;DHT22;9648;51.130;13.978;2022-11-18T09:56:49;0.20;99.90
19031;DHT22;9648;51.130;13.978;2022-11-18T09:59:19;0.00;99.90
19031;DHT22;9648;51.130;13.978;2022-11-18T10:01:47;0.00;99.90
19031;DHT22;9648;51.130;13.978;2022-11-18T10:04:16;0.10;99.90
19031;DHT22;9648;51.130;13.978;2022-11-18T10:06:44;0.10;99.90
19031;DHT22;9648;51.130;13.978;2022-11-18T10:09:27;0.00;99.90
19031;DHT22;9648;51.130;13.978;2022-11-18T10:12:17;0.00;99.90
19031;DHT22;9648;51.130;13.978;2022-11-18T10:14:56;0.00;99.90
19031;DHT22;9648;51.130;13.978;2022-11-18T10:17:34;0.00;99.90
19031;DHT22;9648;51.130;13.978;2022-11-18T10:20:15;0.00;99.90
19031;DHT22;9648;51.130;13.978;2022-11-18T10:22:48;0.00;99.90
19031;DHT22;9648;51.130;13.978;2022-11-18T10:25:17;0.00;99.90
19031;DHT22;9648;51.130;13.978;2022-11-18T10:27:47;0.00;99.90
19031;DHT22;9648;51.130;13.978;2022-11-18T10:30:16;0.10;99.90
19031;DHT22;9648;51.130;13.978;2022-11-18T10:32:58;0.10;99.90
19031;DHT22;9648;51.130;13.978;2022-11-18T10:35:28;0.10;99.90
19031;DHT22;9648;51.130;13.978;2022-11-18T10:38:00;0.10;99.90
19031;DHT22;9648;51.130;13.978;2022-11-18T10:40:29;0.10;99.90
19031;DHT22;9648;51.130;13.978;2022-11-18T10:42:58;0.10;99.90
19031;DHT22;9648;51.130;13.978;2022-11-18T10:45:27;0.10;99.90
19031;DHT22;9648;51.130;13.978;2022-11-18T10:48:00;0.00;99.90
19031;DHT22;9648;51.130;13.978;2022-11-18T10:50:30;0.10;99.90
19031;DHT22;9648;51.130;13.978;2022-11-18T10:52:57;0.00;99.90
19031;DHT22;9648;51.130;13.978;2022-11-18T10:55:25;0.00;99.90
19031;DHT22;9648;51.130;13.978;2022-11-18T10:58:00;0.00;99.90
19031;DHT22;9648;51.130;13.978;2022-11-18T11:00:33;0.00;99.90
19031;DHT22;9648;51.130;13.978;2022-11-18T11:03:00;0.00;99.90
19031;DHT22;9648;51.130;13.978;2022-11-18T11:05:40;0.00;99.90
19031;DHT22;9648;51.130;13.978;2022-11-18T11:08:18;0.00;99.90
19031;DHT22;9648;51.130;13.978;2022-11-18T11:10:53;-0.10;99.90
19031;DHT22;9648;51.130;13.978;2022-11-18T11:13:23;0.00;99.90
19031;DHT22;9648;51.130;13.978;2022-11-18T11:15:55;0.00;99.90
19031;DHT22;9648;51.130;13.978;2022-11-18T11:18:27;0.00;99.90
19031;DHT22;9648;51.130;13.978;2022-11-18T11:21:10;-0.10;99.90
19031;DHT22;9648;51.130;13.978;2022-11-18T11:23:37;-0.20;99.90
19031;DHT22;9648;51.130;13.978;2022-11-18T11:26:11;-0.10;99.90
19031;DHT22;9648;51.130;13.978;2022-11-18T11:28:44;0.00;99.90
19031;DHT22;9648;51.130;13.978;2022-11-18T11:31:17;0.00;99.90
19031;DHT22;9648;51.130;13.978;2022-11-18T11:33:50;-0.10;99.90
19031;DHT22;9648;51.130;13.978;2022-11-18T11:36:30;0.00;99.90
19031;DHT22;9648;51.130;13.978;2022-11-18T11:39:04;0.10;99.90
19031;DHT22;9648;51.130;13.978;2022-11-18T11:41:42;0.10;99.90
19031;DHT22;9648;51.130;13.978;2022-11-18T11:44:31;0.00;99.90
19031;DHT22;9648;51.130;13.978;2022-11-18T11:47:12;0.00;99.90
19031;DHT22;9648;51.130;13.978;2022-11-18T11:50:07;0.00;99.90
19031;DHT22;9648;51.130;13.978;2022-11-18T11:52:39;0.00;99.90
19031;DHT22;9648;51.130;13.978;2022-11-18T11:55:17;0.10;99.90
19031;DHT22;9648;51.130;13.978;2022-11-18T11:58:12;0.10;99.90
19031;DHT22;9648;51.130;13.978;2022-11-18T12:00:51;0.00;99.90
19031;DHT22;9648;51.130;13.978;2022-11-18T12:03:38;-0.10;99.90
19031;DHT22;9648;51.130;13.978;2022-11-18T12:06:08;-0.30;99.90
19031;DHT22;9648;51.130;13.978;2022-11-18T12:08:35;-0.20;99.90
19031;DHT22;9648;51.130;13.978;2022-11-18T12:11:06;-0.20;99.90
19031;DHT22;9648;51.130;13.978;2022-11-18T12:13:41;-0.20;99.90
19031;DHT22;9648;51.130;13.978;2022-11-18T12:16:19;-0.20;99.90
19031;DHT22;9648;51.130;13.978;2022-11-18T12:18:49;-0.30;99.90
19031;DHT22;9648;51.130;13.978;2022-11-18T12:21:55;-0.30;99.90
19031;DHT22;9648;51.130;13.978;2022-11-18T12:24:38;-0.40;99.90
19031;DHT22;9648;51.130;13.978;2022-11-18T12:27:10;-0.30;99.90
19031;DHT22;9648;51.130;13.978;2022-11-18T12:29:43;-0.20;99.90
19031;DHT22;9648;51.130;13.978;2022-11-18T12:32:28;-0.20;99.90
19031;DHT22;9648;51.130;13.978;2022-11-18T12:34:58;-0.30;99.90
19031;DHT22;9648;51.130;13.978;2022-11-18T12:37:44;-0.30;99.90
19031;DHT22;9648;51.130;13.978;2022-11-18T12:40:39;-0.30;99.90
19031;DHT22;9648;51.130;13.978;2022-11-18T12:46:09;-0.50;99.90
19031;DHT22;9648;51.130;13.978;2022-11-18T12:52:18;-0.70;99.90
19031;DHT22;9648;51.130;13.978;2022-11-18T12:54:54;-0.70;99.90
19031;DHT22;9648;51.130;13.978;2022-11-18T12:57:23;-0.80;99.90
19031;DHT22;9648;51.130;13.978;2022-11-18T12:59:50;-0.80;99.90
19031;DHT22;9648;51.130;13.978;2022-11-18T13:02:22;-0.80;99.90
19031;DHT22;9648;51.130;13.978;2022-11-18T13:05:06;-0.80;99.90
19031;DHT22;9648;51.130;13.978;2022-11-18T13:07:37;-0.80;99.90
19031;DHT22;9648;51.130;13.978;2022-11-18T13:10:25;-0.80;99.90
19031;DHT22;9648;51.130;13.978;2022-11-18T13:12:53;-0.70;99.90
19031;DHT22;9648;51.130;13.978;2022-11-18T13:15:20;-0.80;99.90
19031;DHT22;9648;51.130;13.978;2022-11-18T13:18:10;-0.80;99.90
19031;DHT22;9648;51.130;13.978;2022-11-18T13:20:40;-0.90;99.90
19031;DHT22;9648;51.130;13.978;2022-11-18T13:23:25;-0.90;99.90
19031;DHT22;9648;51.130;13.978;2022-11-18T13:26:16;-0.80;99.90
19031;DHT22;9648;51.130;13.978;2022-11-18T13:28:56;-0.80;99.90
19031;DHT22;9648;51.130;13.978;2022-11-18T13:31:31;-0.80;99.90
19031;DHT22;9648;51.130;13.978;2022-11-18T13:34:00;-0.90;99.90
19031;DHT22;9648;51.130;13.978;2022-11-18T13:36:30;-1.10;99.90
19031;DHT22;9648;51.130;13.978;2022-11-18T13:38:58;-1.10;99.90
19031;DHT22;9648;51.130;13.978;2022-11-18T13:41:27;-1.10;99.90
19031;DHT22;9648;51.130;13.978;2022-11-18T13:44:09;-1.30;99.90
19031;DHT22;9648;51.130;13.978;2022-11-18T13:46:40;-1.30;99.90
19031;DHT22;9648;51.130;13.978;2022-11-18T13:49:11;-1.20;99.90
19031;DHT22;9648;51.130;13.978;2022-11-18T13:51:41;-1.30;99.90
19031;DHT22;9648;51.130;13.978;2022-11-18T13:54:10;-1.30;99.90
19031;DHT22;9648;51.130;13.978;2022-11-18T13:56:38;-1.30;99.90
19031;DHT22;9648;51.130;13.978;2022-11-18T13:59:12;-1.30;99.90
19031;DHT22;9648;51.130;13.978;2022-11-18T14:01:42;-1.40;99.90
19031;DHT22;9648;51.130;13.978;2022-11-18T14:04:16;-1.40;99.90
19031;DHT22;9648;51.130;13.978;2022-11-18T14:06:46;-1.40;99.90
19031;DHT22;9648;51.130;13.978;2022-11-18T14:09:23;-1.50;99.90
19031;DHT22;9648;51.130;13.978;2022-11-18T14:11:58;-1.40;99.90
19031;DHT22;9648;51.130;13.978;2022-11-18T14:14:31;-1.40;99.90
19031;DHT22;9648;51.130;13.978;2022-11-18T14:17:19;-1.40;99.90
19031;DHT22;9648;51.130;13.978;2022-11-18T14:19:48;-1.50;99.90
19031;DHT22;9648;51.130;13.978;2022-11-18T14:22:18;-1.50;99.90
19031;DHT22;9648;51.130;13.978;2022-11-18T14:24:53;-1.40;99.90
19031;DHT22;9648;51.130;13.978;2022-11-18T14:27:33;-1.40;99.90
19031;DHT22;9648;51.130;13.978;2022-11-18T14:30:01;-1.40;99.90
19031;DHT22;9648;51.130;13.978;2022-11-18T14:32:28;-1.40;99.90
19031;DHT22;9648;51.130;13.978;2022-11-18T14:34:58;-1.40;99.90
19031;DHT22;9648;51.130;13.978;2022-11-18T14:37:26;-1.30;99.90
19031;DHT22;9648;51.130;13.978;2022-11-18T14:39:54;-1.40;99.90
19031;DHT22;9648;51.130;13.978;2022-11-18T14:42:21;-1.40;99.90
19031;DHT22;9648;51.130;13.978;2022-11-18T14:44:48;-1.40;99.90
19031;DHT22;9648;51.130;13.978;2022-11-18T14:47:20;-1.40;99.90
19031;DHT22;9648;51.130;13.978;2022-11-18T14:49:47;-1.40;99.90
19031;DHT22;9648;51.130;13.978;2022-11-18T14:52:14;-1.40;99.90
19031;DHT22;9648;51.130;13.978;2022-11-18T14:54:42;-1.40;99.90
19031;DHT22;9648;51.130;13.978;2022-11-18T14:57:13;-1.50;99.90
19031;DHT22;9648;51.130;13.978;2022-11-18T14:59:41;-1.50;99.90
19031;DHT22;9648;51.130;13.978;2022-11-18T15:02:13;-1.50;99.90
19031;DHT22;9648;51.130;13.978;2022-11-18T15:04:40;-1.50;99.90
19031;DHT22;9648;51.130;13.978;2022-11-18T15:07:08;-1.50;99.90
19031;DHT22;9648;51.130;13.978;2022-11-18T15:09:37;-1.40;99.90
19031;DHT22;9648;51.130;13.978;2022-11-18T15:12:06;-1.40;99.90
19031;DHT22;9648;51.130;13.978;2022-11-18T15:14:33;-1.50;99.90
19031;DHT22;9648;51.130;13.978;2022-11-18T15:17:00;-1.50;99.90
19031;DHT22;9648;51.130;13.978;2022-11-18T15:19:27;-1.50;99.90
19031;DHT22;9648;51.130;13.978;2022-11-18T15:21:54;-1.50;99.90
19031;DHT22;9648;51.130;13.978;2022-11-18T15:24:21;-1.50;99.90
19031;DHT22;9648;51.130;13.978;2022-11-18T15:26:48;-1.50;99.90
19031;DHT22;9648;51.130;13.978;2022-11-18T15:29:18;-1.50;99.90
19031;DHT22;9648;51.130;13.978;2022-11-18T15:31:45;-1.50;99.90
19031;DHT22;9648;51.130;13.978;2022-11-18T15:34:13;-1.50;99.90
19031;DHT22;9648;51.130;13.978;2022-11-18T15:36:39;-1.50;99.90
19031;DHT22;9648;51.130;13.978;2022-11-18T15:39:07;-1.50;99.90
19031;DHT22;9648;51.130;13.978;2022-11-18T15:41:35;-1.50;99.90
19031;DHT22;9648;51.130;13.978;2022-11-18T15:44:03;-1.50;99.90
19031;DHT22;9648;51.130;13.978;2022-11-18T15:46:31;-1.50;99.90
19031;DHT22;9648;51.130;13.978;2022-11-18T15:48:59;-1.50;99.90
19031;DHT22;9648;51.130;13.978;2022-11-18T15:51:27;-1.50;99.90
19031;DHT22;9648;51.130;13.978;2022-11-18T15:53:54;-1.50;99.90
19031;DHT22;9648;51.130;13.978;2022-11-18T15:56:25;-1.40;99.90
19031;DHT22;9648;51.130;13.978;2022-11-18T15:58:53;-1.40;99.90
19031;DHT22;9648;51.130;13.978;2022-11-18T16:01:21;-1.50;99.90
19031;DHT22;9648;51.130;13.978;2022-11-18T16:03:49;-1.50;99.90
19031;DHT22;9648;51.130;13.978;2022-11-18T16:06:16;-1.40;99.90
19031;DHT22;9648;51.130;13.978;2022-11-18T16:08:43;-1.40;99.90
19031;DHT22;9648;51.130;13.978;2022-11-18T16:11:12;-1.40;99.90